KCHA

Lovell Field Airport

Chattanooga, Tennessee, USA
METAR KCHA 181332Z 00000KT 1 1/2SM BCFG BKN005 OVC010 08/07 A3012 RMK AO2 T00780067
Observed Flight Rules
Jan-18 @ 13:32 UTC (28 minutes ago) Instrument Flight Rules
Visibility Clouds Conditions
1 1/2 miles
  • Broken at 500' AGL
  • Overcast at 1,000' AGL
  • Patches of
  • Fog
Temperatures Readings
Current 8°C / 46°F
Dewpoint 7°C / 45°F
Humidity 93%
Altimeter 30.12" Hg
Pressure 1020.02 hPa
Elevation 210
METAR KCHA 181332Z 00000KT 1 1/2SM BCFG BKN005 OVC010 08/07 A3012 RMK AO2 T00780067
Observed Flight Rules
Jan-18 @ 13:32 UTC
(28 minutes ago)
IFR
Clouds
  • Broken at 500' AGL
  • Overcast at 1,000' AGL
Conditions
  • Patches of
  • Fog
Temperature Dewpoint
8°C / 46°F 7°C / 45°F
Humidity Altimeter Pressure
93% 30.12" Hg 1020.02 hPa